sensor_id;sensor_type;location;lat;lon;timestamp;P1;durP1;ratioP1;P2;durP2;ratioP2
71150;SDS011;59071;42.138;24.768;2023-07-29T00:00:49;3.80;;;2.92;;
71150;SDS011;59071;42.138;24.768;2023-07-29T00:03:15;6.45;;;3.00;;
71150;SDS011;59071;42.138;24.768;2023-07-29T00:05:40;4.53;;;3.10;;
71150;SDS011;59071;42.138;24.768;2023-07-29T00:08:06;5.30;;;2.75;;
71150;SDS011;59071;42.138;24.768;2023-07-29T00:10:32;5.05;;;2.60;;
71150;SDS011;59071;42.138;24.768;2023-07-29T00:13:00;5.97;;;2.90;;
71150;SDS011;59071;42.138;24.768;2023-07-29T00:15:26;4.47;;;3.00;;
71150;SDS011;59071;42.138;24.768;2023-07-29T00:17:51;5.25;;;2.90;;
71150;SDS011;59071;42.138;24.768;2023-07-29T00:20:17;4.20;;;2.90;;
71150;SDS011;59071;42.138;24.768;2023-07-29T00:22:42;3.13;;;2.72;;
71150;SDS011;59071;42.138;24.768;2023-07-29T00:25:08;2.97;;;2.58;;
71150;SDS011;59071;42.138;24.768;2023-07-29T00:27:33;3.70;;;2.60;;
71150;SDS011;59071;42.138;24.768;2023-07-29T00:29:59;7.10;;;3.25;;
71150;SDS011;59071;42.138;24.768;2023-07-29T00:32:27;3.65;;;2.90;;
71150;SDS011;59071;42.138;24.768;2023-07-29T00:34:54;4.65;;;3.17;;
71150;SDS011;59071;42.138;24.768;2023-07-29T00:37:19;3.55;;;3.05;;
71150;SDS011;59071;42.138;24.768;2023-07-29T00:39:45;4.05;;;2.78;;
71150;SDS011;59071;42.138;24.768;2023-07-29T00:42:10;4.80;;;3.03;;
71150;SDS011;59071;42.138;24.768;2023-07-29T00:44:36;4.65;;;3.03;;
71150;SDS011;59071;42.138;24.768;2023-07-29T00:47:02;5.75;;;2.97;;
71150;SDS011;59071;42.138;24.768;2023-07-29T00:49:29;3.90;;;2.80;;
71150;SDS011;59071;42.138;24.768;2023-07-29T00:51:55;6.13;;;3.00;;
71150;SDS011;59071;42.138;24.768;2023-07-29T00:54:21;3.78;;;2.60;;
71150;SDS011;59071;42.138;24.768;2023-07-29T00:56:47;4.95;;;2.88;;
71150;SDS011;59071;42.138;24.768;2023-07-29T00:59:12;4.18;;;2.92;;
71150;SDS011;59071;42.138;24.768;2023-07-29T01:01:38;5.78;;;2.95;;
71150;SDS011;59071;42.138;24.768;2023-07-29T01:04:03;3.38;;;2.55;;
71150;SDS011;59071;42.138;24.768;2023-07-29T01:17:13;4.65;;;2.97;;
71150;SDS011;59071;42.138;24.768;2023-07-29T01:19:42;6.00;;;3.00;;
71150;SDS011;59071;42.138;24.768;2023-07-29T01:24:59;5.10;;;2.83;;
71150;SDS011;59071;42.138;24.768;2023-07-29T01:27:25;5.22;;;3.05;;
71150;SDS011;59071;42.138;24.768;2023-07-29T01:29:51;4.35;;;2.90;;
71150;SDS011;59071;42.138;24.768;2023-07-29T01:32:19;6.85;;;3.05;;
71150;SDS011;59071;42.138;24.768;2023-07-29T01:35:00;5.43;;;2.90;;
71150;SDS011;59071;42.138;24.768;2023-07-29T01:37:32;6.53;;;3.00;;
71150;SDS011;59071;42.138;24.768;2023-07-29T01:39:59;5.45;;;2.92;;
71150;SDS011;59071;42.138;24.768;2023-07-29T01:42:25;3.33;;;2.78;;
71150;SDS011;59071;42.138;24.768;2023-07-29T01:44:51;3.60;;;2.78;;
71150;SDS011;59071;42.138;24.768;2023-07-29T01:47:17;4.72;;;3.20;;
71150;SDS011;59071;42.138;24.768;2023-07-29T01:49:42;5.32;;;2.88;;
71150;SDS011;59071;42.138;24.768;2023-07-29T01:52:08;3.85;;;3.00;;
71150;SDS011;59071;42.138;24.768;2023-07-29T01:54:33;4.47;;;2.97;;
71150;SDS011;59071;42.138;24.768;2023-07-29T01:56:59;3.72;;;3.00;;
71150;SDS011;59071;42.138;24.768;2023-07-29T01:59:24;6.43;;;3.50;;
71150;SDS011;59071;42.138;24.768;2023-07-29T02:01:49;5.68;;;3.05;;
71150;SDS011;59071;42.138;24.768;2023-07-29T02:04:15;6.38;;;3.30;;
71150;SDS011;59071;42.138;24.768;2023-07-29T02:06:40;4.95;;;3.40;;
71150;SDS011;59071;42.138;24.768;2023-07-29T02:09:06;4.68;;;3.50;;
71150;SDS011;59071;42.138;24.768;2023-07-29T02:11:31;4.50;;;3.63;;
71150;SDS011;59071;42.138;24.768;2023-07-29T02:13:57;5.13;;;3.60;;
71150;SDS011;59071;42.138;24.768;2023-07-29T02:16:23;4.22;;;3.55;;
71150;SDS011;59071;42.138;24.768;2023-07-29T02:18:48;6.85;;;3.65;;
71150;SDS011;59071;42.138;24.768;2023-07-29T02:21:15;6.15;;;3.53;;
71150;SDS011;59071;42.138;24.768;2023-07-29T02:23:40;5.10;;;3.70;;
71150;SDS011;59071;42.138;24.768;2023-07-29T02:26:06;5.20;;;3.92;;
71150;SDS011;59071;42.138;24.768;2023-07-29T02:28:32;5.93;;;3.72;;
71150;SDS011;59071;42.138;24.768;2023-07-29T02:33:35;4.82;;;3.58;;
71150;SDS011;59071;42.138;24.768;2023-07-29T02:36:01;7.78;;;3.80;;
71150;SDS011;59071;42.138;24.768;2023-07-29T02:38:26;7.13;;;3.53;;
71150;SDS011;59071;42.138;24.768;2023-07-29T02:40:52;6.28;;;3.67;;
71150;SDS011;59071;42.138;24.768;2023-07-29T02:43:17;4.75;;;3.53;;
71150;SDS011;59071;42.138;24.768;2023-07-29T02:45:42;4.38;;;3.50;;
71150;SDS011;59071;42.138;24.768;2023-07-29T02:48:08;5.57;;;3.75;;
71150;SDS011;59071;42.138;24.768;2023-07-29T02:50:34;5.00;;;3.70;;
71150;SDS011;59071;42.138;24.768;2023-07-29T02:52:59;5.93;;;3.40;;
71150;SDS011;59071;42.138;24.768;2023-07-29T02:55:26;6.15;;;3.83;;
71150;SDS011;59071;42.138;24.768;2023-07-29T02:57:52;5.60;;;3.40;;
71150;SDS011;59071;42.138;24.768;2023-07-29T03:00:17;4.60;;;3.50;;
71150;SDS011;59071;42.138;24.768;2023-07-29T03:02:43;6.53;;;3.40;;
71150;SDS011;59071;42.138;24.768;2023-07-29T03:05:08;4.35;;;3.42;;
71150;SDS011;59071;42.138;24.768;2023-07-29T03:07:33;4.63;;;3.25;;
71150;SDS011;59071;42.138;24.768;2023-07-29T03:09:59;3.85;;;3.28;;
71150;SDS011;59071;42.138;24.768;2023-07-29T03:12:24;4.95;;;3.42;;
71150;SDS011;59071;42.138;24.768;2023-07-29T03:14:50;4.65;;;3.40;;
71150;SDS011;59071;42.138;24.768;2023-07-29T03:17:15;5.28;;;3.60;;
71150;SDS011;59071;42.138;24.768;2023-07-29T03:19:41;4.68;;;3.60;;
71150;SDS011;59071;42.138;24.768;2023-07-29T03:22:06;4.25;;;3.20;;
71150;SDS011;59071;42.138;24.768;2023-07-29T03:24:32;4.15;;;3.20;;
71150;SDS011;59071;42.138;24.768;2023-07-29T03:26:57;3.90;;;3.38;;
71150;SDS011;59071;42.138;24.768;2023-07-29T03:29:23;7.30;;;3.80;;
71150;SDS011;59071;42.138;24.768;2023-07-29T03:31:48;5.20;;;3.60;;
71150;SDS011;59071;42.138;24.768;2023-07-29T03:34:14;5.10;;;3.28;;
71150;SDS011;59071;42.138;24.768;2023-07-29T03:36:39;5.43;;;3.70;;
71150;SDS011;59071;42.138;24.768;2023-07-29T03:39:05;4.20;;;3.28;;
71150;SDS011;59071;42.138;24.768;2023-07-29T03:41:32;4.45;;;3.30;;
71150;SDS011;59071;42.138;24.768;2023-07-29T03:43:58;5.93;;;3.30;;
71150;SDS011;59071;42.138;24.768;2023-07-29T03:46:24;4.03;;;3.30;;
71150;SDS011;59071;42.138;24.768;2023-07-29T03:48:49;4.53;;;3.40;;
71150;SDS011;59071;42.138;24.768;2023-07-29T03:51:15;3.90;;;3.50;;
71150;SDS011;59071;42.138;24.768;2023-07-29T03:53:40;5.57;;;3.50;;
71150;SDS011;59071;42.138;24.768;2023-07-29T03:56:06;4.57;;;3.45;;
71150;SDS011;59071;42.138;24.768;2023-07-29T03:58:32;4.20;;;3.30;;
71150;SDS011;59071;42.138;24.768;2023-07-29T04:00:58;5.88;;;3.67;;
71150;SDS011;59071;42.138;24.768;2023-07-29T04:03:24;4.95;;;3.60;;
71150;SDS011;59071;42.138;24.768;2023-07-29T04:05:49;3.53;;;3.00;;
71150;SDS011;59071;42.138;24.768;2023-07-29T04:08:14;6.72;;;3.55;;
71150;SDS011;59071;42.138;24.768;2023-07-29T04:10:40;14.27;;;10.05;;
71150;SDS011;59071;42.138;24.768;2023-07-29T04:13:05;24.75;;;17.40;;
71150;SDS011;59071;42.138;24.768;2023-07-29T04:15:31;24.10;;;16.63;;
71150;SDS011;59071;42.138;24.768;2023-07-29T04:17:56;29.90;;;20.30;;
71150;SDS011;59071;42.138;24.768;2023-07-29T04:20:22;6.07;;;3.75;;
71150;SDS011;59071;42.138;24.768;2023-07-29T04:22:47;4.60;;;3.20;;
71150;SDS011;59071;42.138;24.768;2023-07-29T04:25:13;4.57;;;3.22;;
71150;SDS011;59071;42.138;24.768;2023-07-29T04:27:38;3.80;;;3.17;;
71150;SDS011;59071;42.138;24.768;2023-07-29T04:30:04;5.70;;;3.38;;
71150;SDS011;59071;42.138;24.768;2023-07-29T04:32:30;5.18;;;3.53;;
71150;SDS011;59071;42.138;24.768;2023-07-29T04:34:55;3.63;;;3.05;;
71150;SDS011;59071;42.138;24.768;2023-07-29T04:37:21;5.13;;;3.25;;
71150;SDS011;59071;42.138;24.768;2023-07-29T04:39:46;6.30;;;3.42;;
71150;SDS011;59071;42.138;24.768;2023-07-29T04:42:11;5.68;;;3.85;;
71150;SDS011;59071;42.138;24.768;2023-07-29T04:44:37;11.55;;;6.90;;
71150;SDS011;59071;42.138;24.768;2023-07-29T04:47:02;12.85;;;8.43;;
71150;SDS011;59071;42.138;24.768;2023-07-29T04:49:28;5.05;;;3.17;;
71150;SDS011;59071;42.138;24.768;2023-07-29T04:51:53;3.88;;;3.10;;
71150;SDS011;59071;42.138;24.768;2023-07-29T04:54:19;4.32;;;3.50;;
71150;SDS011;59071;42.138;24.768;2023-07-29T04:56:45;5.25;;;3.50;;
71150;SDS011;59071;42.138;24.768;2023-07-29T04:59:11;5.30;;;3.47;;
71150;SDS011;59071;42.138;24.768;2023-07-29T05:01:38;4.68;;;3.15;;
71150;SDS011;59071;42.138;24.768;2023-07-29T05:04:03;4.35;;;3.20;;
71150;SDS011;59071;42.138;24.768;2023-07-29T05:06:29;3.58;;;3.20;;
71150;SDS011;59071;42.138;24.768;2023-07-29T05:08:56;6.93;;;3.50;;
71150;SDS011;59071;42.138;24.768;2023-07-29T05:11:23;8.83;;;3.30;;
71150;SDS011;59071;42.138;24.768;2023-07-29T05:13:50;5.93;;;3.22;;
71150;SDS011;59071;42.138;24.768;2023-07-29T05:16:15;3.28;;;2.78;;
71150;SDS011;59071;42.138;24.768;2023-07-29T05:18:41;10.20;;;7.60;;
71150;SDS011;59071;42.138;24.768;2023-07-29T05:21:06;5.93;;;4.13;;
71150;SDS011;59071;42.138;24.768;2023-07-29T05:23:33;6.72;;;3.50;;
71150;SDS011;59071;42.138;24.768;2023-07-29T05:25:59;4.22;;;3.45;;
71150;SDS011;59071;42.138;24.768;2023-07-29T05:28:24;4.15;;;3.53;;
71150;SDS011;59071;42.138;24.768;2023-07-29T05:30:49;6.10;;;3.55;;
71150;SDS011;59071;42.138;24.768;2023-07-29T05:33:15;5.43;;;3.95;;
71150;SDS011;59071;42.138;24.768;2023-07-29T05:35:40;5.55;;;4.63;;
71150;SDS011;59071;42.138;24.768;2023-07-29T05:38:06;7.32;;;4.13;;
71150;SDS011;59071;42.138;24.768;2023-07-29T05:40:33;5.85;;;3.10;;
71150;SDS011;59071;42.138;24.768;2023-07-29T05:42:59;7.22;;;3.00;;
71150;SDS011;59071;42.138;24.768;2023-07-29T05:45:24;5.53;;;3.00;;
71150;SDS011;59071;42.138;24.768;2023-07-29T05:47:50;3.65;;;2.83;;
71150;SDS011;59071;42.138;24.768;2023-07-29T05:50:15;6.55;;;3.05;;
71150;SDS011;59071;42.138;24.768;2023-07-29T05:52:41;4.47;;;3.20;;
71150;SDS011;59071;42.138;24.768;2023-07-29T05:55:06;5.88;;;2.83;;
71150;SDS011;59071;42.138;24.768;2023-07-29T05:57:32;7.15;;;2.90;;
71150;SDS011;59071;42.138;24.768;2023-07-29T05:59:57;4.05;;;2.80;;
71150;SDS011;59071;42.138;24.768;2023-07-29T06:02:23;4.05;;;2.67;;
71150;SDS011;59071;42.138;24.768;2023-07-29T06:04:48;5.53;;;3.03;;
71150;SDS011;59071;42.138;24.768;2023-07-29T06:07:14;5.45;;;3.20;;
71150;SDS011;59071;42.138;24.768;2023-07-29T06:09:39;5.70;;;3.67;;
71150;SDS011;59071;42.138;24.768;2023-07-29T06:12:05;5.22;;;2.75;;
71150;SDS011;59071;42.138;24.768;2023-07-29T06:14:31;5.10;;;2.95;;
71150;SDS011;59071;42.138;24.768;2023-07-29T06:16:56;4.93;;;2.97;;
71150;SDS011;59071;42.138;24.768;2023-07-29T06:19:22;4.57;;;2.75;;
71150;SDS011;59071;42.138;24.768;2023-07-29T06:21:48;4.72;;;2.90;;
71150;SDS011;59071;42.138;24.768;2023-07-29T06:24:13;3.25;;;2.80;;
71150;SDS011;59071;42.138;24.768;2023-07-29T06:26:38;3.42;;;2.95;;
71150;SDS011;59071;42.138;24.768;2023-07-29T06:29:04;3.90;;;3.00;;
71150;SDS011;59071;42.138;24.768;2023-07-29T06:31:29;3.95;;;2.88;;
71150;SDS011;59071;42.138;24.768;2023-07-29T06:33:55;4.88;;;2.70;;
71150;SDS011;59071;42.138;24.768;2023-07-29T06:36:21;4.85;;;3.75;;
71150;SDS011;59071;42.138;24.768;2023-07-29T06:38:46;6.72;;;3.10;;
71150;SDS011;59071;42.138;24.768;2023-07-29T06:41:12;3.60;;;2.60;;
71150;SDS011;59071;42.138;24.768;2023-07-29T06:43:37;3.88;;;2.55;;
71150;SDS011;59071;42.138;24.768;2023-07-29T06:46:03;3.60;;;2.60;;
71150;SDS011;59071;42.138;24.768;2023-07-29T06:48:28;2.85;;;2.47;;
71150;SDS011;59071;42.138;24.768;2023-07-29T06:50:53;3.47;;;2.42;;
71150;SDS011;59071;42.138;24.768;2023-07-29T06:53:20;5.13;;;2.47;;
71150;SDS011;59071;42.138;24.768;2023-07-29T06:55:46;6.63;;;2.90;;
71150;SDS011;59071;42.138;24.768;2023-07-29T06:58:11;3.60;;;2.50;;
71150;SDS011;59071;42.138;24.768;2023-07-29T07:00:37;3.42;;;2.60;;
71150;SDS011;59071;42.138;24.768;2023-07-29T07:03:02;7.78;;;3.33;;
71150;SDS011;59071;42.138;24.768;2023-07-29T07:05:27;5.47;;;2.70;;
71150;SDS011;59071;42.138;24.768;2023-07-29T07:07:53;5.65;;;2.85;;
71150;SDS011;59071;42.138;24.768;2023-07-29T07:10:18;3.70;;;2.60;;
71150;SDS011;59071;42.138;24.768;2023-07-29T07:12:44;3.50;;;2.60;;
71150;SDS011;59071;42.138;24.768;2023-07-29T07:15:09;3.45;;;2.90;;
71150;SDS011;59071;42.138;24.768;2023-07-29T07:17:35;3.47;;;2.58;;
71150;SDS011;59071;42.138;24.768;2023-07-29T07:20:00;4.07;;;3.22;;
71150;SDS011;59071;42.138;24.768;2023-07-29T07:22:26;3.47;;;2.70;;
71150;SDS011;59071;42.138;24.768;2023-07-29T07:24:51;6.32;;;2.95;;
71150;SDS011;59071;42.138;24.768;2023-07-29T07:27:17;5.55;;;3.03;;
71150;SDS011;59071;42.138;24.768;2023-07-29T07:29:42;4.57;;;3.17;;
71150;SDS011;59071;42.138;24.768;2023-07-29T07:32:08;5.50;;;3.13;;
71150;SDS011;59071;42.138;24.768;2023-07-29T07:34:33;4.88;;;2.75;;
71150;SDS011;59071;42.138;24.768;2023-07-29T07:36:59;4.18;;;3.05;;
71150;SDS011;59071;42.138;24.768;2023-07-29T07:39:25;6.57;;;3.22;;
71150;SDS011;59071;42.138;24.768;2023-07-29T07:41:51;4.72;;;2.80;;
71150;SDS011;59071;42.138;24.768;2023-07-29T07:44:16;5.00;;;2.78;;
71150;SDS011;59071;42.138;24.768;2023-07-29T07:46:43;3.40;;;2.63;;
71150;SDS011;59071;42.138;24.768;2023-07-29T07:49:08;6.68;;;2.80;;
71150;SDS011;59071;42.138;24.768;2023-07-29T07:51:34;3.70;;;2.55;;
71150;SDS011;59071;42.138;24.768;2023-07-29T07:53:59;3.95;;;2.83;;
71150;SDS011;59071;42.138;24.768;2023-07-29T07:56:24;4.13;;;2.90;;
71150;SDS011;59071;42.138;24.768;2023-07-29T07:58:50;4.25;;;2.85;;
71150;SDS011;59071;42.138;24.768;2023-07-29T08:01:15;4.55;;;2.80;;
71150;SDS011;59071;42.138;24.768;2023-07-29T08:03:41;5.18;;;2.90;;
71150;SDS011;59071;42.138;24.768;2023-07-29T08:06:06;4.88;;;2.80;;
71150;SDS011;59071;42.138;24.768;2023-07-29T08:08:31;6.47;;;2.72;;
71150;SDS011;59071;42.138;24.768;2023-07-29T08:10:57;4.32;;;2.70;;
71150;SDS011;59071;42.138;24.768;2023-07-29T08:13:23;4.13;;;2.90;;
71150;SDS011;59071;42.138;24.768;2023-07-29T08:15:52;4.35;;;2.90;;
71150;SDS011;59071;42.138;24.768;2023-07-29T08:18:18;7.47;;;3.00;;
71150;SDS011;59071;42.138;24.768;2023-07-29T08:20:56;4.38;;;3.22;;
71150;SDS011;59071;42.138;24.768;2023-07-29T08:23:26;5.78;;;3.22;;
71150;SDS011;59071;42.138;24.768;2023-07-29T08:28:18;4.15;;;3.00;;
71150;SDS011;59071;42.138;24.768;2023-07-29T08:30:43;8.93;;;3.20;;
71150;SDS011;59071;42.138;24.768;2023-07-29T08:33:09;3.63;;;2.78;;
71150;SDS011;59071;42.138;24.768;2023-07-29T08:35:34;4.05;;;2.92;;
71150;SDS011;59071;42.138;24.768;2023-07-29T08:37:59;4.28;;;3.25;;
71150;SDS011;59071;42.138;24.768;2023-07-29T08:40:25;4.72;;;3.08;;
71150;SDS011;59071;42.138;24.768;2023-07-29T08:42:54;4.32;;;2.78;;
71150;SDS011;59071;42.138;24.768;2023-07-29T08:45:23;4.18;;;3.17;;
71150;SDS011;59071;42.138;24.768;2023-07-29T08:47:50;6.22;;;2.67;;
71150;SDS011;59071;42.138;24.768;2023-07-29T08:50:23;5.05;;;2.90;;
71150;SDS011;59071;42.138;24.768;2023-07-29T08:52:49;5.40;;;2.95;;
71150;SDS011;59071;42.138;24.768;2023-07-29T08:55:17;3.63;;;2.92;;
71150;SDS011;59071;42.138;24.768;2023-07-29T08:57:44;4.40;;;2.78;;
71150;SDS011;59071;42.138;24.768;2023-07-29T09:00:10;4.70;;;3.15;;
71150;SDS011;59071;42.138;24.768;2023-07-29T09:02:36;3.35;;;2.70;;
71150;SDS011;59071;42.138;24.768;2023-07-29T09:05:02;3.10;;;2.80;;
71150;SDS011;59071;42.138;24.768;2023-07-29T09:07:27;3.83;;;2.60;;
71150;SDS011;59071;42.138;24.768;2023-07-29T09:09:54;3.17;;;2.88;;
71150;SDS011;59071;42.138;24.768;2023-07-29T09:12:19;4.90;;;2.70;;
71150;SDS011;59071;42.138;24.768;2023-07-29T09:14:45;4.18;;;2.90;;
71150;SDS011;59071;42.138;24.768;2023-07-29T09:17:10;3.58;;;2.90;;
71150;SDS011;59071;42.138;24.768;2023-07-29T09:19:36;5.25;;;3.05;;
71150;SDS011;59071;42.138;24.768;2023-07-29T09:22:02;3.70;;;2.92;;
71150;SDS011;59071;42.138;24.768;2023-07-29T09:24:28;3.05;;;2.70;;
71150;SDS011;59071;42.138;24.768;2023-07-29T09:26:57;6.07;;;2.78;;
71150;SDS011;59071;42.138;24.768;2023-07-29T09:29:22;4.55;;;2.95;;
71150;SDS011;59071;42.138;24.768;2023-07-29T09:31:48;3.72;;;3.00;;
71150;SDS011;59071;42.138;24.768;2023-07-29T09:34:15;5.05;;;3.03;;
71150;SDS011;59071;42.138;24.768;2023-07-29T09:36:42;3.92;;;2.90;;
71150;SDS011;59071;42.138;24.768;2023-07-29T09:39:10;3.28;;;2.67;;
71150;SDS011;59071;42.138;24.768;2023-07-29T09:41:38;3.83;;;2.60;;
71150;SDS011;59071;42.138;24.768;2023-07-29T09:44:03;2.90;;;2.47;;
71150;SDS011;59071;42.138;24.768;2023-07-29T09:46:35;4.15;;;2.67;;
71150;SDS011;59071;42.138;24.768;2023-07-29T09:49:05;3.05;;;2.50;;
71150;SDS011;59071;42.138;24.768;2023-07-29T09:51:37;3.22;;;2.50;;
71150;SDS011;59071;42.138;24.768;2023-07-29T09:54:04;3.80;;;2.70;;
71150;SDS011;59071;42.138;24.768;2023-07-29T09:56:29;4.05;;;2.70;;
71150;SDS011;59071;42.138;24.768;2023-07-29T09:58:55;5.22;;;2.60;;
71150;SDS011;59071;42.138;24.768;2023-07-29T10:01:22;3.17;;;2.88;;
71150;SDS011;59071;42.138;24.768;2023-07-29T10:03:48;3.38;;;2.90;;
71150;SDS011;59071;42.138;24.768;2023-07-29T10:06:14;3.90;;;2.83;;
71150;SDS011;59071;42.138;24.768;2023-07-29T10:08:40;3.25;;;2.70;;
71150;SDS011;59071;42.138;24.768;2023-07-29T10:11:08;4.10;;;2.75;;
71150;SDS011;59071;42.138;24.768;2023-07-29T10:13:36;6.68;;;3.00;;
71150;SDS011;59071;42.138;24.768;2023-07-29T10:16:02;5.88;;;3.33;;
71150;SDS011;59071;42.138;24.768;2023-07-29T10:18:30;3.63;;;2.43;;
71150;SDS011;59071;42.138;24.768;2023-07-29T10:20:57;3.53;;;2.60;;
71150;SDS011;59071;42.138;24.768;2023-07-29T10:23:27;2.72;;;2.20;;
71150;SDS011;59071;42.138;24.768;2023-07-29T10:25:58;3.10;;;2.63;;
71150;SDS011;59071;42.138;24.768;2023-07-29T10:28:31;3.63;;;2.83;;
71150;SDS011;59071;42.138;24.768;2023-07-29T10:30:58;3.92;;;2.75;;
71150;SDS011;59071;42.138;24.768;2023-07-29T10:33:24;3.42;;;3.03;;
71150;SDS011;59071;42.138;24.768;2023-07-29T10:35:50;3.47;;;2.78;;
71150;SDS011;59071;42.138;24.768;2023-07-29T10:38:17;4.95;;;2.60;;
71150;SDS011;59071;42.138;24.768;2023-07-29T10:40:56;4.65;;;2.65;;
71150;SDS011;59071;42.138;24.768;2023-07-29T10:43:34;3.03;;;2.45;;
71150;SDS011;59071;42.138;24.768;2023-07-29T10:48:43;3.47;;;2.75;;
71150;SDS011;59071;42.138;24.768;2023-07-29T10:53:54;4.63;;;2.40;;
71150;SDS011;59071;42.138;24.768;2023-07-29T10:56:30;3.42;;;2.65;;
71150;SDS011;59071;42.138;24.768;2023-07-29T11:01:41;3.35;;;2.55;;
71150;SDS011;59071;42.138;24.768;2023-07-29T11:17:33;4.65;;;2.45;;
71150;SDS011;59071;42.138;24.768;2023-07-29T11:20:02;3.33;;;2.60;;
71150;SDS011;59071;42.138;24.768;2023-07-29T11:22:29;2.35;;;2.15;;
71150;SDS011;59071;42.138;24.768;2023-07-29T11:24:55;3.70;;;2.47;;
71150;SDS011;59071;42.138;24.768;2023-07-29T11:27:21;2.38;;;2.17;;
71150;SDS011;59071;42.138;24.768;2023-07-29T11:29:46;4.38;;;2.42;;
71150;SDS011;59071;42.138;24.768;2023-07-29T11:32:12;3.28;;;2.40;;
71150;SDS011;59071;42.138;24.768;2023-07-29T11:34:38;3.75;;;2.47;;
71150;SDS011;59071;42.138;24.768;2023-07-29T11:37:05;4.63;;;2.63;;
71150;SDS011;59071;42.138;24.768;2023-07-29T11:39:31;2.95;;;2.50;;
71150;SDS011;59071;42.138;24.768;2023-07-29T11:41:58;4.07;;;2.42;;
71150;SDS011;59071;42.138;24.768;2023-07-29T11:44:24;2.63;;;2.20;;
71150;SDS011;59071;42.138;24.768;2023-07-29T11:46:50;3.03;;;2.13;;
71150;SDS011;59071;42.138;24.768;2023-07-29T11:49:15;2.95;;;2.33;;
71150;SDS011;59071;42.138;24.768;2023-07-29T11:51:41;3.78;;;2.20;;
71150;SDS011;59071;42.138;24.768;2023-07-29T11:54:08;3.38;;;2.10;;
71150;SDS011;59071;42.138;24.768;2023-07-29T11:56:34;2.63;;;2.05;;
71150;SDS011;59071;42.138;24.768;2023-07-29T11:59:00;2.45;;;2.10;;
71150;SDS011;59071;42.138;24.768;2023-07-29T12:01:28;2.35;;;2.15;;
71150;SDS011;59071;42.138;24.768;2023-07-29T12:03:54;2.58;;;2.05;;
71150;SDS011;59071;42.138;24.768;2023-07-29T12:06:21;4.45;;;2.00;;
71150;SDS011;59071;42.138;24.768;2023-07-29T12:08:47;3.58;;;2.10;;
71150;SDS011;59071;42.138;24.768;2023-07-29T12:11:12;2.45;;;1.90;;
71150;SDS011;59071;42.138;24.768;2023-07-29T12:13:41;2.50;;;1.90;;
71150;SDS011;59071;42.138;24.768;2023-07-29T12:16:07;3.00;;;2.00;;
71150;SDS011;59071;42.138;24.768;2023-07-29T12:18:32;5.47;;;1.73;;
71150;SDS011;59071;42.138;24.768;2023-07-29T12:20:59;2.05;;;1.80;;
71150;SDS011;59071;42.138;24.768;2023-07-29T12:23:24;2.65;;;1.70;;
71150;SDS011;59071;42.138;24.768;2023-07-29T12:25:57;2.22;;;1.70;;
71150;SDS011;59071;42.138;24.768;2023-07-29T12:28:23;1.83;;;1.70;;
71150;SDS011;59071;42.138;24.768;2023-07-29T12:30:53;4.50;;;1.48;;
71150;SDS011;59071;42.138;24.768;2023-07-29T12:33:34;2.25;;;1.70;;
71150;SDS011;59071;42.138;24.768;2023-07-29T12:36:03;2.80;;;1.58;;
71150;SDS011;59071;42.138;24.768;2023-07-29T12:38:28;1.50;;;1.40;;
71150;SDS011;59071;42.138;24.768;2023-07-29T12:40:54;2.10;;;1.58;;
71150;SDS011;59071;42.138;24.768;2023-07-29T12:43:21;1.75;;;1.65;;
71150;SDS011;59071;42.138;24.768;2023-07-29T12:45:48;2.67;;;1.40;;
71150;SDS011;59071;42.138;24.768;2023-07-29T12:48:14;1.88;;;1.58;;
71150;SDS011;59071;42.138;24.768;2023-07-29T12:50:40;2.22;;;1.45;;
71150;SDS011;59071;42.138;24.768;2023-07-29T12:53:06;2.58;;;1.70;;
71150;SDS011;59071;42.138;24.768;2023-07-29T12:55:32;1.67;;;1.30;;
71150;SDS011;59071;42.138;24.768;2023-07-29T12:57:58;1.30;;;1.20;;
71150;SDS011;59071;42.138;24.768;2023-07-29T13:00:24;1.27;;;1.17;;
71150;SDS011;59071;42.138;24.768;2023-07-29T13:02:50;1.25;;;1.10;;
71150;SDS011;59071;42.138;24.768;2023-07-29T13:05:16;1.40;;;1.00;;
71150;SDS011;59071;42.138;24.768;2023-07-29T13:07:42;1.08;;;0.82;;
71150;SDS011;59071;42.138;24.768;2023-07-29T13:10:08;0.50;;;0.50;;
71150;SDS011;59071;42.138;24.768;2023-07-29T13:12:34;0.80;;;0.70;;
71150;SDS011;59071;42.138;24.768;2023-07-29T13:14:59;0.65;;;0.65;;
71150;SDS011;59071;42.138;24.768;2023-07-29T13:17:25;1.02;;;0.77;;
71150;SDS011;59071;42.138;24.768;2023-07-29T13:19:51;1.10;;;0.93;;
71150;SDS011;59071;42.138;24.768;2023-07-29T13:22:16;1.50;;;1.20;;
71150;SDS011;59071;42.138;24.768;2023-07-29T13:24:42;0.75;;;0.75;;
71150;SDS011;59071;42.138;24.768;2023-07-29T13:27:07;1.30;;;1.20;;
71150;SDS011;59071;42.138;24.768;2023-07-29T13:29:33;3.67;;;1.70;;
71150;SDS011;59071;42.138;24.768;2023-07-29T13:31:58;1.20;;;1.10;;
71150;SDS011;59071;42.138;24.768;2023-07-29T13:34:24;1.23;;;1.10;;
71150;SDS011;59071;42.138;24.768;2023-07-29T13:36:49;1.53;;;1.23;;
71150;SDS011;59071;42.138;24.768;2023-07-29T13:39:15;3.85;;;1.35;;
71150;SDS011;59071;42.138;24.768;2023-07-29T13:41:40;1.50;;;1.40;;
71150;SDS011;59071;42.138;24.768;2023-07-29T13:44:06;3.08;;;1.27;;
71150;SDS011;59071;42.138;24.768;2023-07-29T13:46:31;1.45;;;1.33;;
71150;SDS011;59071;42.138;24.768;2023-07-29T13:48:57;1.50;;;1.40;;
71150;SDS011;59071;42.138;24.768;2023-07-29T13:51:22;1.90;;;1.20;;
71150;SDS011;59071;42.138;24.768;2023-07-29T13:53:48;1.30;;;1.20;;
71150;SDS011;59071;42.138;24.768;2023-07-29T13:56:13;1.30;;;1.20;;
71150;SDS011;59071;42.138;24.768;2023-07-29T13:58:39;1.58;;;1.38;;
71150;SDS011;59071;42.138;24.768;2023-07-29T14:01:05;1.30;;;1.10;;
71150;SDS011;59071;42.138;24.768;2023-07-29T14:03:31;1.38;;;1.27;;
71150;SDS011;59071;42.138;24.768;2023-07-29T14:05:56;1.10;;;1.00;;
71150;SDS011;59071;42.138;24.768;2023-07-29T14:08:22;1.20;;;1.10;;
71150;SDS011;59071;42.138;24.768;2023-07-29T14:10:51;1.50;;;1.20;;
71150;SDS011;59071;42.138;24.768;2023-07-29T14:13:16;1.77;;;1.20;;
71150;SDS011;59071;42.138;24.768;2023-07-29T14:15:41;1.42;;;1.33;;
71150;SDS011;59071;42.138;24.768;2023-07-29T14:18:07;2.88;;;1.30;;
71150;SDS011;59071;42.138;24.768;2023-07-29T14:20:33;1.20;;;1.10;;
71150;SDS011;59071;42.138;24.768;2023-07-29T14:22:58;1.13;;;1.02;;
71150;SDS011;59071;42.138;24.768;2023-07-29T14:25:24;1.15;;;1.05;;
71150;SDS011;59071;42.138;24.768;2023-07-29T14:27:50;1.25;;;1.13;;
71150;SDS011;59071;42.138;24.768;2023-07-29T14:30:15;1.10;;;1.00;;
71150;SDS011;59071;42.138;24.768;2023-07-29T14:32:41;1.17;;;1.08;;
71150;SDS011;59071;42.138;24.768;2023-07-29T14:35:06;1.42;;;1.10;;
71150;SDS011;59071;42.138;24.768;2023-07-29T14:37:33;1.40;;;1.10;;
71150;SDS011;59071;42.138;24.768;2023-07-29T14:39:59;1.10;;;1.00;;
71150;SDS011;59071;42.138;24.768;2023-07-29T14:42:25;1.33;;;1.23;;
71150;SDS011;59071;42.138;24.768;2023-07-29T14:44:51;1.23;;;1.10;;
71150;SDS011;59071;42.138;24.768;2023-07-29T14:47:17;1.15;;;1.02;;
71150;SDS011;59071;42.138;24.768;2023-07-29T14:49:43;1.45;;;1.20;;
71150;SDS011;59071;42.138;24.768;2023-07-29T14:52:09;1.50;;;1.20;;
71150;SDS011;59071;42.138;24.768;2023-07-29T14:54:35;1.52;;;1.40;;
71150;SDS011;59071;42.138;24.768;2023-07-29T14:57:00;1.35;;;1.10;;
71150;SDS011;59071;42.138;24.768;2023-07-29T14:59:25;2.13;;;1.23;;
71150;SDS011;59071;42.138;24.768;2023-07-29T15:01:51;1.40;;;1.30;;
71150;SDS011;59071;42.138;24.768;2023-07-29T15:04:16;2.53;;;1.30;;
71150;SDS011;59071;42.138;24.768;2023-07-29T15:06:42;2.58;;;1.30;;